Time;durP1;ratioP1;P1;durP2;ratioP2;P2;SDS_P1;SDS_P2;PMS_P1;PMS_P2;Temp;Humidity;BMP_temperature;BMP_pressure;BME280_temperature;BME280_humidity;BME280_pressure;Samples;Min_cycle;Max_cycle;Signal;HPM_P1;HPM_P2
2023/10/09 00:02:12;;;;;;;8.68;4.68;;;;;;;15.88;78.66;100547.38;6134962;23;20020;-91
2023/10/09 00:04:42;;;;;;;10.23;4.70;;;;;;;15.91;78.73;100550.59;6157478;23;20012;-90
2023/10/09 00:07:10;;;;;;;10.23;5.00;;;;;;;15.88;78.94;100550.91;6182057;23;20096;-90
2023/10/09 00:09:47;;;;;;;10.38;5.13;;;;;;;15.90;78.88;100550.72;6157013;23;20036;-91
2023/10/09 00:12:25;;;;;;;7.68;4.72;;;;;;;15.87;78.38;100546.50;6156799;23;20051;-90
2023/10/09 00:14:55;;;;;;;10.68;4.80;;;;;;;15.85;78.78;100535.13;6230410;23;20012;-91
2023/10/09 00:17:23;;;;;;;9.55;5.03;;;;;;;15.84;79.03;100536.94;6157503;23;20054;-90
2023/10/09 00:19:59;;;;;;;7.57;4.32;;;;;;;15.87;79.27;100533.13;6156757;23;20025;-91
2023/10/09 00:22:29;;;;;;;11.77;4.63;;;;;;;15.86;79.46;100522.59;6181926;23;20094;-91
2023/10/09 00:25:12;;;;;;;9.57;5.10;;;;;;;15.82;79.64;100528.25;6180979;23;20096;-92
2023/10/09 00:27:45;;;;;;;11.13;5.30;;;;;;;15.83;79.79;100527.25;6182708;23;20063;-91
2023/10/09 00:30:17;;;;;;;12.00;5.25;;;;;;;15.78;79.24;100521.50;6132627;23;20012;-90
2023/10/09 00:33:07;;;;;;;8.77;5.00;;;;;;;15.75;79.52;100519.13;6181924;23;20052;-90
2023/10/09 00:35:36;;;;;;;7.00;4.70;;;;;;;15.74;78.92;100514.75;6185002;23;20025;-91
2023/10/09 00:40:53;;;;;;;8.77;4.22;;;;;;;15.70;79.43;100521.44;6157828;23;20024;-91
2023/10/09 00:43:29;;;;;;;11.75;4.85;;;;;;;15.75;79.51;100518.31;6156042;23;20041;-91
2023/10/09 00:46:23;;;;;;;10.40;4.47;;;;;;;15.66;78.98;100514.66;6180979;23;20040;-91
2023/10/09 00:48:57;;;;;;;8.75;4.82;;;;;;;15.59;79.27;100514.41;6156079;23;20036;-92
2023/10/09 00:51:24;;;;;;;;;;;;;;;15.40;79.47;100512.72;6156513;23;20329;-90
2023/10/09 00:54:06;;;;;;;9.00;4.45;;;;;;;15.57;79.49;100504.84;6180649;23;20305;-90
2023/10/09 00:56:44;;;;;;;8.85;4.22;;;;;;;15.58;79.59;100503.88;6158046;23;20020;-90
2023/10/09 00:59:16;;;;;;;7.10;4.60;;;;;;;15.55;79.38;100501.50;6182290;23;20039;-92
2023/10/09 01:02:04;;;;;;;10.75;4.90;;;;;;;15.59;79.64;100497.50;6156220;23;20024;-91
2023/10/09 01:04:36;;;;;;;10.65;4.85;;;;;;;15.56;79.92;100495.16;6155206;23;20024;-91
2023/10/09 01:07:09;;;;;;;10.30;4.63;;;;;;;15.59;79.95;100493.00;6205492;23;20020;-92
2023/10/09 01:09:37;;;;;;;8.35;4.00;;;;;;;15.59;80.01;100484.13;6132702;23;20025;-92
2023/10/09 01:12:05;;;;;;;10.90;5.07;;;;;;;15.61;79.85;100492.84;6132224;23;20035;-92
2023/10/09 01:14:41;;;;;;;7.75;4.75;;;;;;;15.62;79.63;100491.84;6180282;23;20071;-91
2023/10/09 01:17:08;;;;;;;10.02;4.65;;;;;;;15.51;79.78;100487.56;6180719;23;20044;-91
2023/10/09 01:19:36;;;;;;;11.18;5.40;;;;;;;15.54;79.76;100479.22;6180513;23;20523;-91
2023/10/09 01:22:16;;;;;;;12.43;4.53;;;;;;;15.55;79.76;100477.41;6180578;23;20027;-90
2023/10/09 01:24:43;;;;;;;10.45;5.43;;;;;;;15.54;79.63;100479.22;6180286;23;20087;-91
2023/10/09 01:27:16;;;;;;;12.52;5.00;;;;;;;15.53;79.61;100474.88;6181603;23;20027;-90
2023/10/09 01:29:45;;;;;;;9.18;5.45;;;;;;;15.54;79.46;100486.41;6182509;23;20076;-90
2023/10/09 01:32:19;;;;;;;12.38;4.85;;;;;;;15.57;79.49;100481.63;6181487;23;23558;-92
2023/10/09 01:34:49;;;;;;;10.52;4.82;;;;;;;15.54;79.69;100479.22;6182381;23;20455;-92
2023/10/09 01:37:18;;;;;;;9.85;4.60;;;;;;;15.54;79.64;100467.69;6180639;23;20044;-91
2023/10/09 01:39:50;;;;;;;8.35;5.05;;;;;;;15.48;80.12;100468.31;6180945;23;20451;-91
2023/10/09 01:45:26;;;;;;;11.60;4.88;;;;;;;15.49;80.00;100465.44;6158169;23;20038;-91
2023/10/09 01:47:57;;;;;;;9.55;4.78;;;;;;;15.48;79.88;100466.47;6205212;23;20092;-91
2023/10/09 01:50:30;;;;;;;11.18;5.15;;;;;;;15.50;80.12;100464.47;6132748;23;20027;-93
2023/10/09 01:53:01;;;;;;;11.88;4.80;;;;;;;15.51;79.96;100463.47;6133166;23;20486;-90
2023/10/09 01:55:39;;;;;;;11.25;5.13;;;;;;;15.51;80.32;100466.16;6156743;23;20032;-91
2023/10/09 02:00:56;;;;;;;11.32;4.78;;;;;;;15.47;80.41;100450.53;6183408;23;20032;-92
2023/10/09 02:03:23;;;;;;;10.82;4.55;;;;;;;15.50;80.52;100443.06;6156814;23;20086;-91
2023/10/09 02:06:03;;;;;;;8.05;4.75;;;;;;;15.51;80.39;100442.06;6180638;23;20059;-90
2023/10/09 02:08:30;;;;;;;9.18;4.35;;;;;;;15.49;80.55;100449.41;6156982;23;20370;-91
2023/10/09 02:10:56;;;;;;;8.70;4.88;;;;;;;15.49;80.65;100446.72;6156044;23;20021;-90
2023/10/09 02:13:29;;;;;;;11.45;4.88;;;;;;;15.48;80.52;100447.72;6155494;23;20021;-91
2023/10/09 02:16:13;;;;;;;9.35;4.45;;;;;;;15.50;80.75;100448.41;6156597;23;20437;-90
2023/10/09 02:18:52;;;;;;;10.52;4.63;;;;;;;15.45;81.33;100456.06;6159048;23;20031;-91
2023/10/09 02:21:39;;;;;;;11.23;4.70;;;;;;;15.47;80.86;100454.09;6157598;23;20025;-92
2023/10/09 02:24:10;;;;;;;13.27;5.55;;;;;;;15.48;80.87;100452.25;6159406;23;20051;-90
2023/10/09 02:27:06;;;;;;;12.40;4.88;;;;;;;15.51;81.18;100455.44;6179181;23;20023;-91
2023/10/09 02:29:27;;;;;;;10.52;5.35;;;;;;;15.49;81.47;100446.72;6159222;23;20488;-91
2023/10/09 02:32:00;;;;;;;9.50;4.85;;;;;;;15.50;81.12;100448.41;6155617;23;20429;-90
2023/10/09 02:34:29;;;;;;;10.52;4.78;;;;;;;15.50;81.01;100431.53;6153996;23;20320;-90
2023/10/09 02:37:05;;;;;;;12.98;5.90;;;;;;;15.53;81.02;100428.53;6179612;23;20083;-90
2023/10/09 02:39:43;;;;;;;9.85;5.10;;;;;;;15.51;80.98;100427.84;6181346;23;20025;-91
2023/10/09 02:44:46;;;;;;;10.77;5.05;;;;;;;15.58;81.17;100415.53;6180188;23;20025;-91
2023/10/09 02:47:20;;;;;;;10.13;5.60;;;;;;;15.55;81.34;100418.53;6179931;23;20040;-91
2023/10/09 02:49:50;;;;;;;11.00;5.60;;;;;;;15.53;81.31;100421.34;6133063;23;22147;-92
2023/10/09 02:52:18;;;;;;;8.68;4.97;;;;;;;15.52;81.61;100419.66;6130446;23;20029;-90
2023/10/09 02:54:52;;;;;;;9.57;4.90;;;;;;;15.51;81.28;100414.47;6155993;23;20047;-91
2023/10/09 02:57:23;;;;;;;11.15;5.10;;;;;;;15.52;81.41;100410.78;6156428;23;20066;-90
2023/10/09 02:59:53;;;;;;;11.50;4.70;;;;;;;15.49;81.18;100409.25;6179890;23;20037;-91
2023/10/09 03:02:24;;;;;;;12.27;5.93;;;;;;;15.51;80.95;100407.25;6180928;23;22098;-91
2023/10/09 03:04:55;;;;;;;7.95;5.43;;;;;;;15.49;81.36;100411.91;6156777;23;20024;-93
2023/10/09 03:07:23;;;;;;;9.40;4.78;;;;;;;15.50;81.43;100405.59;6179584;23;20024;-91
2023/10/09 03:09:50;;;;;;;10.68;4.82;;;;;;;15.50;81.51;100408.28;6131436;23;20017;-90
2023/10/09 03:12:18;;;;;;;8.48;5.47;;;;;;;15.49;81.58;100411.91;6130829;23;20449;-92
2023/10/09 03:14:46;;;;;;;11.65;4.97;;;;;;;15.52;81.62;100413.44;6155965;23;20032;-91
2023/10/09 03:17:13;;;;;;;13.10;5.22;;;;;;;15.46;81.87;100420.25;6158190;23;20020;-91
2023/10/09 03:19:43;;;;;;;11.00;5.00;;;;;;;15.46;82.03;100422.09;6182640;23;20111;-91
2023/10/09 03:22:10;;;;;;;11.82;4.88;;;;;;;15.45;82.12;100423.94;6157958;23;20095;-91
2023/10/09 03:24:41;;;;;;;11.75;5.30;;;;;;;15.46;81.98;100430.13;6206613;23;20024;-91
2023/10/09 03:27:08;;;;;;;9.15;4.68;;;;;;;15.46;82.12;100425.63;6206560;23;20079;-92
2023/10/09 03:29:37;;;;;;;14.88;4.15;;;;;;;15.43;81.68;100425.94;6157913;23;20034;-92
2023/10/09 03:32:04;;;;;;;8.93;4.32;;;;;;;15.41;81.29;100426.06;6157899;23;20472;-91
2023/10/09 03:34:31;;;;;;;14.68;5.40;;;;;;;15.37;81.14;100418.53;6181661;23;20385;-91
2023/10/09 03:37:04;;;;;;;10.15;5.18;;;;;;;15.33;81.16;100423.31;6182206;23;20036;-91
2023/10/09 03:39:41;;;;;;;8.98;4.80;;;;;;;15.33;81.10;100425.16;6156212;23;20020;-92
2023/10/09 03:42:19;;;;;;;11.45;5.53;;;;;;;15.35;81.01;100428.53;6183651;23;20194;-92
2023/10/09 03:44:52;;;;;;;10.90;5.18;;;;;;;15.37;81.17;100429.22;6157140;23;20087;-91
2023/10/09 03:47:22;;;;;;;12.77;6.63;;;;;;;15.32;81.70;100429.69;6180698;23;20411;-91
2023/10/09 03:49:53;;;;;;;12.88;5.78;;;;;;;15.32;82.04;100432.34;6182502;23;20021;-91
2023/10/09 03:52:25;;;;;;;10.52;5.15;;;;;;;15.32;81.62;100424.31;6132118;23;20017;-92
2023/10/09 03:54:53;;;;;;;9.60;5.10;;;;;;;15.26;81.25;100424.91;6207125;23;20425;-92
2023/10/09 03:57:20;;;;;;;11.57;5.68;;;;;;;15.26;81.12;100416.06;6182031;23;20016;-92
2023/10/09 03:59:47;;;;;;;13.23;5.50;;;;;;;15.27;80.71;100418.59;6206616;23;20437;-91
2023/10/09 04:02:15;;;;;;;11.15;6.40;;;;;;;15.22;80.95;100407.50;6181217;23;20298;-91
2023/10/09 04:04:47;;;;;;;16.98;6.25;;;;;;;15.25;80.97;100420.56;6157644;23;20031;-93
2023/10/09 04:07:17;;;;;;;13.07;6.85;;;;;;;15.20;81.35;100417.50;6156439;23;20020;-91
2023/10/09 04:09:47;;;;;;;8.60;5.63;;;;;;;15.22;81.81;100420.03;6157673;23;20092;-91
2023/10/09 04:12:20;;;;;;;12.02;5.68;;;;;;;15.17;81.95;100407.94;6157006;23;20027;-92
2023/10/09 04:14:50;;;;;;;8.77;5.30;;;;;;;15.18;81.51;100412.28;6181433;23;20091;-91
2023/10/09 04:20:25;;;;;;;;;;;;;;;14.96;81.92;100415.44;6158213;23;20518;-91
2023/10/09 04:22:50;;;;;;;15.27;5.38;;;;;;;15.12;82.32;100418.25;6185381;23;20285;-91
2023/10/09 04:25:25;;;;;;;13.77;5.22;;;;;;;15.12;82.59;100410.25;6158819;23;20087;-90
2023/10/09 04:27:53;;;;;;;13.88;5.85;;;;;;;15.20;82.12;100414.84;6157663;23;20349;-92
2023/10/09 04:30:23;;;;;;;13.15;5.63;;;;;;;15.20;82.40;100417.50;6155922;23;20357;-90
2023/10/09 04:32:55;;;;;;;17.70;5.97;;;;;;;15.17;82.07;100407.94;6182416;23;20016;-91
2023/10/09 04:35:24;;;;;;;13.98;5.68;;;;;;;15.20;81.98;100409.47;6181989;23;20027;-92
2023/10/09 04:38:05;;;;;;;9.40;5.45;;;;;;;15.16;81.94;100403.59;6197894;23;20038;-90
2023/10/09 04:40:48;;;;;;;10.73;5.80;;;;;;;15.16;81.92;100403.59;6155491;23;20020;-90
2023/10/09 04:43:20;;;;;;;16.23;5.65;;;;;;;15.17;82.07;100401.75;6206197;23;20024;-91
2023/10/09 04:46:08;;;;;;;18.17;5.85;;;;;;;15.16;82.35;100405.41;6157588;23;20046;-90
2023/10/09 04:48:38;;;;;;;8.95;5.55;;;;;;;15.16;82.37;100408.97;6155802;23;20467;-91
2023/10/09 04:51:21;;;;;;;9.60;5.50;;;;;;;15.19;82.00;100403.31;6181915;23;20426;-90
2023/10/09 04:54:12;;;;;;;;;;;;;;;14.96;82.13;100396.69;6159695;23;20095;-92
2023/10/09 04:56:52;;;;;;;13.30;5.20;;;;;;;15.10;82.19;100398.00;6185667;23;20240;-91
2023/10/09 04:59:24;;;;;;;10.93;5.65;;;;;;;15.11;82.28;100405.03;6180534;23;20352;-91
2023/10/09 05:01:58;;;;;;;8.98;4.88;;;;;;;15.09;82.57;100399.00;6181410;23;20013;-87
2023/10/09 05:07:22;;;;;;;12.38;6.03;;;;;;;15.10;82.81;100404.19;6183687;23;20388;-87
2023/10/09 05:09:55;;;;;;;12.02;5.45;;;;;;;15.08;82.95;100410.69;6184743;23;20020;-87
2023/10/09 05:12:26;;;;;;;15.35;6.72;;;;;;;15.08;83.06;100408.00;6206371;23;20368;-87
2023/10/09 05:15:09;;;;;;;14.80;6.25;;;;;;;15.05;83.03;100416.34;6181854;23;20326;-87
2023/10/09 05:17:38;;;;;;;12.03;5.77;;;;;;;15.00;83.24;100408.75;6180674;23;20046;-87
2023/10/09 05:22:58;;;;;;;12.60;5.90;;;;;;;15.02;83.02;100413.97;6205396;23;20432;-87
2023/10/09 05:28:48;;;;;;;11.85;5.47;;;;;;;15.01;83.17;100409.59;6205282;23;20031;-87
2023/10/09 05:31:08;;;;;;;15.27;6.45;;;;;;;15.01;83.19;100415.81;6185521;23;20027;-88
2023/10/09 05:33:36;;;;;;;13.13;5.32;;;;;;;14.98;83.12;100416.97;6205265;23;20024;-87
2023/10/09 05:38:59;;;;;;;14.00;6.05;;;;;;;15.02;83.51;100430.03;6205546;23;20437;-88
2023/10/09 05:50:06;;;;;;;9.55;5.25;;;;;;;14.98;84.20;100433.00;6201801;23;20468;-87
2023/10/09 05:56:22;;;;;;;14.73;5.75;;;;;;;14.95;83.88;100421.75;6182039;23;20482;-86
2023/10/09 06:01:05;;;;;;;9.88;5.57;;;;;;;15.01;84.05;100431.00;6161363;23;20031;-87
2023/10/09 06:03:55;;;;;;;12.02;6.30;;;;;;;14.99;83.97;100423.13;6184511;23;20031;-88
2023/10/09 06:06:44;;;;;;;9.43;5.82;;;;;;;15.03;83.99;100423.66;6181660;23;20082;-86
2023/10/09 06:11:49;;;;;;;13.30;7.05;;;;;;;15.03;84.30;100431.69;6205062;23;20020;-87
2023/10/09 06:19:43;;;;;;;12.50;6.78;;;;;;;15.10;83.89;100432.78;6180025;23;20032;-88
2023/10/09 06:22:56;;;;;;;15.95;6.38;;;;;;;15.07;83.89;100443.78;6159899;23;20079;-88
2023/10/09 06:25:09;;;;;;;18.55;6.10;;;;;;;15.07;84.04;100444.63;6185741;23;20028;-88
2023/10/09 06:32:57;;;;;;;20.15;7.53;;;;;;;15.12;84.36;100439.66;6179872;23;20334;-88
2023/10/09 06:35:31;;;;;;;12.38;6.47;;;;;;;15.12;84.37;100436.16;6205027;23;20077;-88
2023/10/09 06:43:36;;;;;;;13.00;6.15;;;;;;;15.08;84.58;100430.25;6183854;23;20051;-88
2023/10/09 06:48:57;;;;;;;14.00;6.63;;;;;;;15.08;84.33;100445.47;6205021;23;20020;-88
2023/10/09 06:59:24;;;;;;;15.38;5.90;;;;;;;15.11;84.55;100438.00;6181662;23;20088;-88
2023/10/09 07:04:55;;;;;;;12.20;5.57;;;;;;;15.13;84.93;100425.28;6130709;23;20017;-88
2023/10/09 07:07:24;;;;;;;13.40;5.57;;;;;;;15.18;84.86;100433.69;6192564;23;20433;-87
2023/10/09 07:12:42;;;;;;;17.30;6.53;;;;;;;15.19;84.47;100437.25;6205166;23;20079;-87
2023/10/09 07:16:23;;;;;;;17.55;7.22;;;;;;;15.20;84.46;100445.09;6205585;23;20111;-87
2023/10/09 07:18:18;;;;;;;16.75;6.28;;;;;;;15.22;84.64;100436.94;6169271;23;20395;-87
2023/10/09 07:20:58;;;;;;;17.05;6.45;;;;;;;15.25;84.67;100441.13;6204767;23;20028;-88
2023/10/09 07:23:32;;;;;;;19.35;6.80;;;;;;;15.27;84.68;100453.38;6157528;23;20013;-87
2023/10/09 07:26:18;;;;;;;12.38;5.82;;;;;;;15.24;84.33;100442.97;6205205;23;20032;-88
2023/10/09 07:28:48;;;;;;;16.75;6.78;;;;;;;15.31;84.33;100449.38;6204307;23;20031;-88
2023/10/09 07:31:24;;;;;;;12.52;6.72;;;;;;;15.30;84.44;100453.06;6204283;23;20024;-87
2023/10/09 07:33:56;;;;;;;14.68;7.00;;;;;;;15.32;84.40;100444.91;6156579;23;20051;-87
2023/10/09 07:36:34;;;;;;;19.50;7.00;;;;;;;15.33;84.29;100447.41;6205253;23;20021;-87
2023/10/09 07:39:02;;;;;;;17.80;6.80;;;;;;;15.36;84.42;100446.25;6229720;23;20437;-87
2023/10/09 07:43:57;;;;;;;12.52;6.53;;;;;;;15.39;83.96;100444.13;6205058;23;20024;-86
2023/10/09 07:46:32;;;;;;;16.88;6.63;;;;;;;15.39;84.54;100456.66;6205663;23;20079;-87
2023/10/09 07:49:08;;;;;;;15.93;6.28;;;;;;;15.39;84.21;100464.69;6205037;23;20377;-87
2023/10/09 07:51:43;;;;;;;14.18;6.70;;;;;;;15.40;84.06;100461.88;6204441;23;20415;-87
2023/10/09 07:54:14;;;;;;;16.88;7.40;;;;;;;15.45;84.45;100460.59;6180281;23;20321;-86
2023/10/09 07:56:46;;;;;;;17.02;6.88;;;;;;;15.48;84.32;100458.44;6181255;23;20322;-87
2023/10/09 07:59:17;;;;;;;15.75;7.13;;;;;;;15.45;84.17;100458.75;6204457;23;20024;-87
2023/10/09 08:01:52;;;;;;;15.90;7.10;;;;;;;15.47;84.22;100455.91;6206083;23;20075;-87
2023/10/09 08:04:47;;;;;;;20.63;7.22;;;;;;;15.49;83.96;100467.28;6182823;23;20036;-86
2023/10/09 08:07:34;;;;;;;17.88;7.10;;;;;;;15.53;84.14;100466.84;6185901;23;20017;-87
2023/10/09 08:17:53;;;;;;;25.92;9.63;;;;;;;15.54;84.09;100463.16;6206428;23;20082;-86
2023/10/09 08:20:27;;;;;;;27.33;9.00;;;;;;;15.60;84.20;100472.44;6157324;23;20509;-87
2023/10/09 08:22:56;;;;;;;22.77;8.88;;;;;;;15.60;84.41;100477.78;6209008;23;20024;-87
2023/10/09 08:25:35;;;;;;;22.02;9.45;;;;;;;15.64;84.48;100479.16;6207542;23;20036;-87
2023/10/09 08:30:49;;;;;;;19.98;9.32;;;;;;;15.68;84.46;100482.38;6184809;23;20078;-86
2023/10/09 08:36:04;;;;;;;22.23;7.80;;;;;;;15.77;84.69;100486.84;6208457;23;20098;-87
2023/10/09 08:38:35;;;;;;;17.08;7.32;;;;;;;15.78;84.57;100500.09;6183553;23;20538;-87
2023/10/09 08:41:19;;;;;;;20.90;7.93;;;;;;;15.80;84.81;100492.75;6207061;23;20028;-86
2023/10/09 08:43:52;;;;;;;17.83;7.43;;;;;;;15.81;85.18;100489.06;6181909;23;20100;-86
2023/10/09 08:46:28;;;;;;;17.27;7.95;;;;;;;15.87;85.47;100489.44;6205630;23;20034;-86
2023/10/09 08:48:58;;;;;;;19.45;7.32;;;;;;;15.92;85.03;100479.94;6156260;23;20027;-87
2023/10/09 08:51:26;;;;;;;19.80;7.50;;;;;;;15.95;84.80;100468.06;6180794;23;20035;-86
2023/10/09 08:53:53;;;;;;;21.33;8.30;;;;;;;15.98;84.65;100463.28;6205857;23;20033;-86
2023/10/09 08:56:24;;;;;;;19.23;6.72;;;;;;;16.01;84.62;100472.84;6204275;23;20103;-85
2023/10/09 08:58:58;;;;;;;23.85;9.25;;;;;;;15.98;85.84;100479.34;6206209;23;20051;-86
2023/10/09 09:01:25;;;;;;;22.52;9.30;;;;;;;15.99;85.71;100474.81;6181440;23;20032;-86
2023/10/09 09:03:55;;;;;;;24.52;9.45;;;;;;;16.02;85.53;100479.84;6181362;23;20024;-85
2023/10/09 09:06:23;;;;;;;22.52;8.65;;;;;;;16.04;85.20;100481.38;6205766;23;20028;-85
2023/10/09 09:08:59;;;;;;;18.70;7.97;;;;;;;16.05;85.26;100483.09;6181822;23;20020;-86
2023/10/09 09:11:29;;;;;;;21.73;8.43;;;;;;;16.08;85.49;100483.75;6205416;23;20433;-85
2023/10/09 09:14:05;;;;;;;19.27;8.82;;;;;;;16.07;85.53;100493.63;6181858;23;20087;-85
2023/10/09 09:16:36;;;;;;;18.33;8.43;;;;;;;16.09;85.57;100493.47;6205759;23;20036;-85
2023/10/09 09:21:39;;;;;;;21.23;7.57;;;;;;;16.11;85.73;100496.84;6205737;23;20020;-85
2023/10/09 09:26:58;;;;;;;;;;;;;;;15.99;86.44;100505.13;6206147;23;20017;-85
2023/10/09 09:29:38;;;;;;;18.60;8.10;;;;;;;16.10;85.29;100496.00;6180866;23;20038;-86
2023/10/09 09:32:19;;;;;;;18.40;7.00;;;;;;;16.17;85.28;100498.91;6205762;23;20098;-86
2023/10/09 09:34:49;;;;;;;17.98;6.25;;;;;;;16.19;84.89;100504.94;6134191;23;20075;-85
2023/10/09 09:37:28;;;;;;;23.45;6.40;;;;;;;16.19;84.21;100508.47;6205433;23;20025;-86
2023/10/09 09:40:11;;;;;;;18.92;6.40;;;;;;;16.24;84.10;100522.25;6181421;23;20015;-85
2023/10/09 09:42:44;;;;;;;21.27;6.72;;;;;;;16.27;84.56;100521.09;6180947;23;20024;-85
2023/10/09 09:45:12;;;;;;;15.48;6.22;;;;;;;16.26;84.18;100512.22;6181876;23;20044;-86
2023/10/09 09:47:40;;;;;;;16.08;6.28;;;;;;;16.32;84.05;100515.25;6155292;23;20021;-85
2023/10/09 09:50:18;;;;;;;18.38;6.57;;;;;;;16.35;83.99;100521.13;6181234;23;20027;-85
2023/10/09 09:52:46;;;;;;;15.80;6.07;;;;;;;16.37;84.11;100519.16;6205581;23;20047;-86
2023/10/09 09:55:22;;;;;;;19.92;6.25;;;;;;;16.37;84.04;100508.44;6205380;23;20393;-86
2023/10/09 09:57:52;;;;;;;20.73;7.43;;;;;;;16.42;84.25;100503.44;6155781;23;20024;-85
2023/10/09 10:00:36;;;;;;;15.45;7.22;;;;;;;16.44;84.28;100498.75;6205243;23;20028;-87
2023/10/09 10:03:12;;;;;;;18.00;6.72;;;;;;;16.42;84.38;100495.41;6183384;23;20429;-86
2023/10/09 10:05:41;;;;;;;16.52;5.75;;;;;;;16.45;84.50;100497.75;6204838;23;20071;-86
2023/10/09 10:08:13;;;;;;;15.07;5.85;;;;;;;16.47;84.39;100490.41;6180297;23;20028;-86
2023/10/09 10:10:52;;;;;;;12.75;5.75;;;;;;;16.46;84.57;100491.41;6157081;23;20345;-86
2023/10/09 10:13:41;;;;;;;20.63;5.97;;;;;;;16.42;84.99;100495.41;6182673;23;20020;-86
2023/10/09 10:19:07;;;;;;;16.55;5.18;;;;;;;16.49;84.86;100495.63;6182282;23;20048;-86
2023/10/09 10:21:41;;;;;;;16.63;6.97;;;;;;;16.52;85.51;100495.28;6178864;23;20483;-86
2023/10/09 10:24:28;;;;;;;17.38;5.57;;;;;;;16.47;87.08;100495.75;6206306;23;20496;-86
2023/10/09 10:30:11;;;;;;;19.30;6.28;;;;;;;16.47;86.72;100522.56;6204482;23;20023;-85
2023/10/09 10:32:53;;;;;;;19.33;7.00;;;;;;;16.45;86.55;100519.19;6205133;23;20021;-86
2023/10/09 10:35:32;;;;;;;15.52;5.75;;;;;;;16.50;86.29;100514.22;6179021;23;20433;-85
2023/10/09 10:40:38;;;;;;;21.33;5.70;;;;;;;16.52;86.68;100494.47;6182046;23;20044;-85
2023/10/09 10:43:31;;;;;;;18.88;5.82;;;;;;;16.52;86.85;100491.78;6180836;23;20051;-86
2023/10/09 10:46:15;;;;;;;17.67;6.35;;;;;;;16.50;87.13;100489.25;6180488;23;20020;-86
2023/10/09 10:48:47;;;;;;;21.80;7.07;;;;;;;16.54;87.29;100500.47;6204580;23;20104;-85
2023/10/09 10:51:21;;;;;;;19.97;6.70;;;;;;;16.54;87.50;100484.41;6180734;23;20031;-85
2023/10/09 10:53:57;;;;;;;12.23;5.30;;;;;;;16.56;87.64;100490.44;6132658;23;20400;-85
2023/10/09 10:56:35;;;;;;;20.48;5.35;;;;;;;16.59;88.14;100493.66;6205917;23;20028;-86
2023/10/09 11:01:50;;;;;;;15.93;6.13;;;;;;;16.65;88.78;100492.19;6205089;23;20023;-85
2023/10/09 11:04:38;;;;;;;24.42;6.32;;;;;;;16.67;88.78;100501.75;6204151;23;20526;-85
2023/10/09 11:12:39;;;;;;;17.45;6.07;;;;;;;16.68;89.18;100511.47;6204251;23;20047;-86
2023/10/09 11:18:06;;;;;;;18.42;6.65;;;;;;;16.70;88.67;100496.06;6130346;23;20092;-86
2023/10/09 11:20:38;;;;;;;18.45;5.80;;;;;;;16.78;88.56;100492.63;6204959;23;20016;-86
2023/10/09 11:25:41;;;;;;;18.02;6.30;;;;;;;16.86;88.05;100483.78;6203835;23;20030;-85
2023/10/09 11:28:42;;;;;;;18.30;6.18;;;;;;;16.87;88.31;100494.34;6155411;23;20033;-86
2023/10/09 11:31:14;;;;;;;15.27;7.03;;;;;;;16.94;88.01;100518.69;6159942;23;20348;-86
2023/10/09 11:33:51;;;;;;;13.70;6.00;;;;;;;16.95;87.87;100508.81;6156143;23;20032;-85
2023/10/09 11:36:31;;;;;;;16.67;6.25;;;;;;;16.99;87.48;100486.00;6155189;23;20313;-87
2023/10/09 11:39:16;;;;;;;17.15;4.97;;;;;;;17.06;87.43;100481.69;6181868;23;20444;-86
2023/10/09 11:41:44;;;;;;;18.77;5.75;;;;;;;17.08;87.35;100460.91;6206709;23;20024;-86
2023/10/09 11:44:33;;;;;;;18.52;6.18;;;;;;;17.14;87.22;100454.88;6182713;23;20031;-86
2023/10/09 11:50:00;;;;;;;17.52;6.00;;;;;;;17.19;86.73;100433.75;6206462;23;20036;-85
2023/10/09 11:52:36;;;;;;;19.00;5.75;;;;;;;17.22;86.59;100393.16;6183094;23;20016;-88
2023/10/09 11:55:16;;;;;;;15.02;4.88;;;;;;;17.24;86.33;100367.00;6182617;23;20025;-88
2023/10/09 11:57:44;;;;;;;12.98;4.57;;;;;;;17.29;86.31;100375.38;6181102;23;20457;-88
2023/10/09 12:00:25;;;;;;;14.95;5.22;;;;;;;17.31;86.44;100408.28;6180184;23;20031;-87
2023/10/09 12:02:52;;;;;;;13.55;4.03;;;;;;;17.34;86.25;100388.31;6135445;23;20024;-88
2023/10/09 12:05:19;;;;;;;12.35;4.28;;;;;;;17.42;86.28;100393.69;6179274;23;20514;-92
2023/10/09 12:07:46;;;;;;;22.55;4.80;;;;;;;17.48;86.55;100400.25;6179541;23;20082;-90
2023/10/09 12:10:14;;;;;;;16.73;5.25;;;;;;;17.49;87.05;100405.44;6179509;23;20020;-92
2023/10/09 12:12:46;;;;;;;15.27;4.13;;;;;;;17.51;87.02;100387.31;6155634;23;20020;-92
2023/10/09 12:15:17;;;;;;;14.73;4.40;;;;;;;17.57;86.72;100392.00;6180377;23;20021;-93
2023/10/09 12:17:46;;;;;;;11.30;4.45;;;;;;;17.62;86.55;100382.63;6179440;23;20029;-92
2023/10/09 12:20:32;;;;;;;14.73;4.78;;;;;;;17.64;85.10;100386.00;6204113;23;20020;-91
2023/10/09 12:22:59;;;;;;;17.90;5.70;;;;;;;17.63;85.82;100395.91;6157636;23;20099;-92
2023/10/09 12:25:31;;;;;;;18.77;5.53;;;;;;;17.68;86.71;100396.22;6155847;23;20016;-93
2023/10/09 12:28:02;;;;;;;14.77;4.25;;;;;;;17.68;86.37;100395.38;6155291;23;20098;-91
2023/10/09 12:30:29;;;;;;;18.80;4.50;;;;;;;17.69;86.92;100397.91;6178770;23;20440;-91
2023/10/09 12:32:57;;;;;;;9.88;4.47;;;;;;;17.73;86.84;100395.72;6155463;23;20020;-90
2023/10/09 12:35:24;;;;;;;23.17;4.57;;;;;;;17.75;86.41;100394.53;6179147;23;20022;-91
2023/10/09 12:37:54;;;;;;;10.48;4.57;;;;;;;17.79;86.68;100389.69;6180333;23;20484;-91
2023/10/09 12:40:24;;;;;;;22.50;5.05;;;;;;;17.81;86.72;100382.31;6131466;23;20078;-92
2023/10/09 12:42:52;;;;;;;13.75;4.53;;;;;;;17.86;87.09;100371.91;6205692;23;20028;-91
2023/10/09 12:45:26;;;;;;;12.55;4.47;;;;;;;17.90;86.87;100370.53;6179401;23;20040;-91
2023/10/09 12:47:58;;;;;;;14.27;4.18;;;;;;;17.95;86.23;100370.03;6156794;23;20083;-93
2023/10/09 12:50:32;;;;;;;13.05;3.60;;;;;;;18.04;86.28;100371.72;6206305;23;20328;-93
2023/10/09 12:53:02;;;;;;;15.40;4.00;;;;;;;18.09;86.18;100371.16;6207404;23;20332;-93
2023/10/09 12:55:32;;;;;;;13.18;4.22;;;;;;;18.17;85.75;100365.81;6157744;23;20314;-93
2023/10/09 12:58:00;;;;;;;11.27;3.90;;;;;;;18.22;84.85;100364.28;6181408;23;20025;-94
2023/10/09 13:00:27;;;;;;;17.08;4.15;;;;;;;18.29;84.56;100355.50;6181422;23;20025;-94
2023/10/09 13:02:54;;;;;;;8.52;3.38;;;;;;;18.29;83.39;100356.34;6181899;23;20020;-93
2023/10/09 13:05:27;;;;;;;9.52;4.03;;;;;;;18.36;82.10;100364.56;6181145;23;20475;-93
2023/10/09 13:07:56;;;;;;;;;;;;;;;18.26;81.63;100356.69;6178633;23;20016;-92
2023/10/09 13:10:26;;;;;;;9.02;3.67;;;;;;;18.42;81.23;100355.81;6129273;23;20243;-91
2023/10/09 13:12:55;;;;;;;12.75;4.38;;;;;;;18.48;80.56;100346.19;6178303;23;20029;-89
2023/10/09 13:15:22;;;;;;;9.88;2.97;;;;;;;18.53;79.46;100349.22;6179002;23;20051;-90
2023/10/09 13:17:49;;;;;;;13.80;3.78;;;;;;;18.55;79.61;100322.97;6179632;23;20586;-92
2023/10/09 13:20:16;;;;;;;11.80;3.30;;;;;;;18.61;77.88;100325.78;6178833;23;20021;-91
2023/10/09 13:22:44;;;;;;;12.57;4.20;;;;;;;18.63;78.01;100320.25;6204063;23;20028;-91
2023/10/09 13:25:24;;;;;;;7.57;3.42;;;;;;;18.66;78.49;100323.41;6180073;23;20348;-92
2023/10/09 13:28:03;;;;;;;10.60;4.43;;;;;;;18.69;77.06;100321.38;6204070;23;20016;-92
2023/10/09 13:30:38;;;;;;;9.18;3.60;;;;;;;18.73;77.08;100317.34;6204572;23;20466;-91
2023/10/09 13:33:05;;;;;;;14.82;3.80;;;;;;;18.74;77.49;100311.75;6179434;23;20020;-90
2023/10/09 13:35:48;;;;;;;9.90;4.00;;;;;;;18.74;75.96;100325.22;6179095;23;20032;-85
2023/10/09 13:38:15;;;;;;;12.07;3.85;;;;;;;18.76;75.05;100323.22;6154368;23;20417;-86
2023/10/09 13:40:42;;;;;;;14.95;4.47;;;;;;;18.78;74.31;100315.00;6153206;23;20349;-85
2023/10/09 13:43:16;;;;;;;9.75;4.05;;;;;;;18.78;74.54;100323.06;6152367;23;20095;-85
2023/10/09 13:45:49;;;;;;;10.15;3.58;;;;;;;18.81;74.61;100310.06;6202821;23;20021;-86
2023/10/09 13:48:17;;;;;;;10.15;4.10;;;;;;;18.79;72.65;100304.03;6178486;23;20035;-85
2023/10/09 13:50:45;;;;;;;13.00;4.32;;;;;;;18.78;72.72;100304.22;6177488;23;20065;-86